sensor_id;sensor_type;location;lat;lon;timestamp;P1;durP1;ratioP1;P2;durP2;ratioP2
28625;SDS011;18905;42.668;23.364;2023-03-30T00:01:12;3.85;;;2.00;;
28625;SDS011;18905;42.668;23.364;2023-03-30T00:03:41;4.78;;;2.10;;
28625;SDS011;18905;42.668;23.364;2023-03-30T00:06:08;5.97;;;1.92;;
28625;SDS011;18905;42.668;23.364;2023-03-30T00:08:34;2.17;;;1.50;;
28625;SDS011;18905;42.668;23.364;2023-03-30T00:11:11;7.22;;;2.22;;
28625;SDS011;18905;42.668;23.364;2023-03-30T00:13:37;4.53;;;2.00;;
28625;SDS011;18905;42.668;23.364;2023-03-30T00:16:04;3.97;;;2.03;;
28625;SDS011;18905;42.668;23.364;2023-03-30T00:18:31;3.13;;;1.80;;
28625;SDS011;18905;42.668;23.364;2023-03-30T00:20:58;5.10;;;2.13;;
28625;SDS011;18905;42.668;23.364;2023-03-30T00:23:26;6.47;;;2.33;;
28625;SDS011;18905;42.668;23.364;2023-03-30T00:25:52;3.50;;;2.20;;
28625;SDS011;18905;42.668;23.364;2023-03-30T00:28:18;4.18;;;1.90;;
28625;SDS011;18905;42.668;23.364;2023-03-30T00:30:43;6.68;;;2.20;;
28625;SDS011;18905;42.668;23.364;2023-03-30T00:33:08;3.75;;;2.17;;
28625;SDS011;18905;42.668;23.364;2023-03-30T00:35:34;4.47;;;2.25;;
28625;SDS011;18905;42.668;23.364;2023-03-30T00:38:00;3.92;;;2.05;;
28625;SDS011;18905;42.668;23.364;2023-03-30T00:40:27;6.38;;;2.13;;
28625;SDS011;18905;42.668;23.364;2023-03-30T00:42:58;5.35;;;2.33;;
28625;SDS011;18905;42.668;23.364;2023-03-30T00:50:22;5.22;;;2.63;;
28625;SDS011;18905;42.668;23.364;2023-03-30T00:52:59;5.88;;;1.85;;
28625;SDS011;18905;42.668;23.364;2023-03-30T00:55:27;5.10;;;2.50;;
28625;SDS011;18905;42.668;23.364;2023-03-30T00:57:56;3.92;;;2.15;;
28625;SDS011;18905;42.668;23.364;2023-03-30T01:00:21;3.13;;;1.92;;
28625;SDS011;18905;42.668;23.364;2023-03-30T01:02:52;4.97;;;2.42;;
28625;SDS011;18905;42.668;23.364;2023-03-30T01:05:22;4.90;;;2.72;;
28625;SDS011;18905;42.668;23.364;2023-03-30T01:07:48;5.75;;;1.80;;
28625;SDS011;18905;42.668;23.364;2023-03-30T01:10:15;3.38;;;2.03;;
28625;SDS011;18905;42.668;23.364;2023-03-30T01:12:41;5.45;;;2.10;;
28625;SDS011;18905;42.668;23.364;2023-03-30T01:15:07;6.05;;;2.30;;
28625;SDS011;18905;42.668;23.364;2023-03-30T01:17:38;2.78;;;1.85;;
28625;SDS011;18905;42.668;23.364;2023-03-30T01:20:18;3.20;;;2.13;;
28625;SDS011;18905;42.668;23.364;2023-03-30T01:41:32;4.80;;;2.28;;
28625;SDS011;18905;42.668;23.364;2023-03-30T01:46:44;7.50;;;2.30;;
28625;SDS011;18905;42.668;23.364;2023-03-30T01:49:29;5.20;;;2.72;;
28625;SDS011;18905;42.668;23.364;2023-03-30T01:52:04;4.95;;;2.20;;
28625;SDS011;18905;42.668;23.364;2023-03-30T01:54:59;5.30;;;2.55;;
28625;SDS011;18905;42.668;23.364;2023-03-30T01:57:55;7.53;;;2.42;;
28625;SDS011;18905;42.668;23.364;2023-03-30T02:00:29;4.15;;;2.45;;
28625;SDS011;18905;42.668;23.364;2023-03-30T02:02:57;5.80;;;2.22;;
28625;SDS011;18905;42.668;23.364;2023-03-30T02:05:26;4.43;;;2.25;;
28625;SDS011;18905;42.668;23.364;2023-03-30T02:07:57;8.88;;;2.33;;
28625;SDS011;18905;42.668;23.364;2023-03-30T02:10:28;9.15;;;2.45;;
28625;SDS011;18905;42.668;23.364;2023-03-30T02:12:57;4.43;;;2.33;;
28625;SDS011;18905;42.668;23.364;2023-03-30T02:15:25;5.97;;;2.63;;
28625;SDS011;18905;42.668;23.364;2023-03-30T02:17:55;5.47;;;2.58;;
28625;SDS011;18905;42.668;23.364;2023-03-30T02:20:20;4.93;;;2.35;;
28625;SDS011;18905;42.668;23.364;2023-03-30T02:22:46;9.50;;;3.28;;
28625;SDS011;18905;42.668;23.364;2023-03-30T02:25:13;3.97;;;2.17;;
28625;SDS011;18905;42.668;23.364;2023-03-30T02:27:39;5.45;;;2.08;;
28625;SDS011;18905;42.668;23.364;2023-03-30T02:30:06;4.40;;;2.17;;
28625;SDS011;18905;42.668;23.364;2023-03-30T02:32:43;7.15;;;2.72;;
28625;SDS011;18905;42.668;23.364;2023-03-30T02:38:19;3.22;;;2.00;;
28625;SDS011;18905;42.668;23.364;2023-03-30T02:40:51;3.50;;;2.20;;
28625;SDS011;18905;42.668;23.364;2023-03-30T02:46:25;4.22;;;2.30;;
28625;SDS011;18905;42.668;23.364;2023-03-30T02:49:14;4.18;;;2.35;;
28625;SDS011;18905;42.668;23.364;2023-03-30T02:51:51;4.18;;;2.58;;
28625;SDS011;18905;42.668;23.364;2023-03-30T02:57:05;9.30;;;3.05;;
28625;SDS011;18905;42.668;23.364;2023-03-30T02:59:48;7.10;;;2.60;;
28625;SDS011;18905;42.668;23.364;2023-03-30T03:02:22;4.80;;;2.00;;
28625;SDS011;18905;42.668;23.364;2023-03-30T03:04:53;4.95;;;2.70;;
28625;SDS011;18905;42.668;23.364;2023-03-30T03:07:19;5.15;;;2.67;;
28625;SDS011;18905;42.668;23.364;2023-03-30T03:09:46;5.85;;;2.92;;
28625;SDS011;18905;42.668;23.364;2023-03-30T03:12:12;5.22;;;3.00;;
28625;SDS011;18905;42.668;23.364;2023-03-30T03:14:37;6.00;;;2.97;;
28625;SDS011;18905;42.668;23.364;2023-03-30T03:17:03;10.38;;;3.15;;
28625;SDS011;18905;42.668;23.364;2023-03-30T03:19:29;4.80;;;2.50;;
28625;SDS011;18905;42.668;23.364;2023-03-30T03:21:55;10.95;;;3.28;;
28625;SDS011;18905;42.668;23.364;2023-03-30T03:24:20;4.78;;;2.47;;
28625;SDS011;18905;42.668;23.364;2023-03-30T03:26:46;5.18;;;2.90;;
28625;SDS011;18905;42.668;23.364;2023-03-30T03:29:12;9.27;;;3.40;;
28625;SDS011;18905;42.668;23.364;2023-03-30T03:31:37;4.68;;;2.65;;
28625;SDS011;18905;42.668;23.364;2023-03-30T03:34:03;4.95;;;3.15;;
28625;SDS011;18905;42.668;23.364;2023-03-30T03:36:28;6.45;;;3.00;;
28625;SDS011;18905;42.668;23.364;2023-03-30T03:38:54;4.28;;;2.88;;
28625;SDS011;18905;42.668;23.364;2023-03-30T03:41:20;6.13;;;2.90;;
28625;SDS011;18905;42.668;23.364;2023-03-30T03:43:46;5.28;;;3.22;;
28625;SDS011;18905;42.668;23.364;2023-03-30T03:46:12;5.20;;;3.17;;
28625;SDS011;18905;42.668;23.364;2023-03-30T03:48:38;4.57;;;2.90;;
28625;SDS011;18905;42.668;23.364;2023-03-30T03:51:03;8.10;;;3.30;;
28625;SDS011;18905;42.668;23.364;2023-03-30T03:53:29;5.95;;;3.60;;
28625;SDS011;18905;42.668;23.364;2023-03-30T03:55:55;7.85;;;3.47;;
28625;SDS011;18905;42.668;23.364;2023-03-30T03:58:20;5.18;;;3.28;;
28625;SDS011;18905;42.668;23.364;2023-03-30T04:00:46;6.70;;;3.67;;
28625;SDS011;18905;42.668;23.364;2023-03-30T04:03:12;5.97;;;3.75;;
28625;SDS011;18905;42.668;23.364;2023-03-30T04:05:38;6.05;;;3.60;;
28625;SDS011;18905;42.668;23.364;2023-03-30T04:08:04;7.07;;;3.60;;
28625;SDS011;18905;42.668;23.364;2023-03-30T04:10:34;5.78;;;3.25;;
28625;SDS011;18905;42.668;23.364;2023-03-30T04:13:03;6.57;;;3.65;;
28625;SDS011;18905;42.668;23.364;2023-03-30T04:15:29;7.78;;;3.95;;
28625;SDS011;18905;42.668;23.364;2023-03-30T04:17:55;4.97;;;3.40;;
28625;SDS011;18905;42.668;23.364;2023-03-30T04:20:24;8.13;;;3.78;;
28625;SDS011;18905;42.668;23.364;2023-03-30T04:22:50;7.43;;;3.75;;
28625;SDS011;18905;42.668;23.364;2023-03-30T04:25:17;7.45;;;4.00;;
28625;SDS011;18905;42.668;23.364;2023-03-30T04:27:46;9.52;;;4.10;;
28625;SDS011;18905;42.668;23.364;2023-03-30T04:30:14;7.28;;;3.83;;
28625;SDS011;18905;42.668;23.364;2023-03-30T04:32:40;5.78;;;4.00;;
28625;SDS011;18905;42.668;23.364;2023-03-30T04:35:05;9.98;;;4.00;;
28625;SDS011;18905;42.668;23.364;2023-03-30T04:37:32;9.82;;;4.57;;
28625;SDS011;18905;42.668;23.364;2023-03-30T04:39:57;12.73;;;4.57;;
28625;SDS011;18905;42.668;23.364;2023-03-30T04:42:28;8.63;;;4.68;;
28625;SDS011;18905;42.668;23.364;2023-03-30T04:44:57;12.48;;;4.68;;
28625;SDS011;18905;42.668;23.364;2023-03-30T04:47:24;8.63;;;4.03;;
28625;SDS011;18905;42.668;23.364;2023-03-30T04:49:49;7.05;;;4.68;;
28625;SDS011;18905;42.668;23.364;2023-03-30T04:52:15;5.78;;;4.18;;
28625;SDS011;18905;42.668;23.364;2023-03-30T04:54:41;11.90;;;4.50;;
28625;SDS011;18905;42.668;23.364;2023-03-30T04:57:08;7.63;;;4.22;;
28625;SDS011;18905;42.668;23.364;2023-03-30T04:59:34;8.68;;;4.80;;
28625;SDS011;18905;42.668;23.364;2023-03-30T05:02:00;10.40;;;5.10;;
28625;SDS011;18905;42.668;23.364;2023-03-30T05:04:28;13.75;;;4.32;;
28625;SDS011;18905;42.668;23.364;2023-03-30T05:06:59;8.68;;;4.45;;
28625;SDS011;18905;42.668;23.364;2023-03-30T05:09:30;6.95;;;3.80;;
28625;SDS011;18905;42.668;23.364;2023-03-30T05:11:59;9.60;;;4.55;;
28625;SDS011;18905;42.668;23.364;2023-03-30T05:14:28;8.57;;;5.10;;
28625;SDS011;18905;42.668;23.364;2023-03-30T05:16:57;14.98;;;4.32;;
28625;SDS011;18905;42.668;23.364;2023-03-30T05:19:27;11.82;;;4.28;;
28625;SDS011;18905;42.668;23.364;2023-03-30T05:21:53;7.97;;;4.32;;
28625;SDS011;18905;42.668;23.364;2023-03-30T05:24:34;16.60;;;5.72;;
28625;SDS011;18905;42.668;23.364;2023-03-30T05:27:00;9.82;;;4.25;;
28625;SDS011;18905;42.668;23.364;2023-03-30T05:29:26;17.65;;;5.57;;
28625;SDS011;18905;42.668;23.364;2023-03-30T05:31:55;11.90;;;5.30;;
28625;SDS011;18905;42.668;23.364;2023-03-30T05:34:20;16.60;;;5.32;;
28625;SDS011;18905;42.668;23.364;2023-03-30T05:36:48;9.88;;;4.75;;
28625;SDS011;18905;42.668;23.364;2023-03-30T05:39:15;12.43;;;4.93;;
28625;SDS011;18905;42.668;23.364;2023-03-30T05:41:44;9.70;;;5.07;;
28625;SDS011;18905;42.668;23.364;2023-03-30T05:44:16;20.30;;;6.00;;
28625;SDS011;18905;42.668;23.364;2023-03-30T05:47:03;15.63;;;5.88;;
28625;SDS011;18905;42.668;23.364;2023-03-30T05:49:32;14.07;;;5.53;;
28625;SDS011;18905;42.668;23.364;2023-03-30T05:51:58;18.73;;;6.55;;
28625;SDS011;18905;42.668;23.364;2023-03-30T05:54:25;12.63;;;5.30;;
28625;SDS011;18905;42.668;23.364;2023-03-30T05:56:51;16.73;;;6.07;;
28625;SDS011;18905;42.668;23.364;2023-03-30T05:59:17;20.70;;;7.32;;
28625;SDS011;18905;42.668;23.364;2023-03-30T06:01:43;27.92;;;6.57;;
28625;SDS011;18905;42.668;23.364;2023-03-30T06:04:10;17.40;;;7.13;;
28625;SDS011;18905;42.668;23.364;2023-03-30T06:06:35;15.48;;;7.65;;
28625;SDS011;18905;42.668;23.364;2023-03-30T06:09:01;13.88;;;7.97;;
28625;SDS011;18905;42.668;23.364;2023-03-30T06:11:28;16.15;;;8.10;;
28625;SDS011;18905;42.668;23.364;2023-03-30T06:13:54;19.35;;;7.70;;
28625;SDS011;18905;42.668;23.364;2023-03-30T06:16:19;20.92;;;8.82;;
28625;SDS011;18905;42.668;23.364;2023-03-30T06:18:45;22.15;;;7.72;;
28625;SDS011;18905;42.668;23.364;2023-03-30T06:21:12;18.17;;;8.27;;
28625;SDS011;18905;42.668;23.364;2023-03-30T06:23:39;20.92;;;7.97;;
28625;SDS011;18905;42.668;23.364;2023-03-30T06:26:06;22.80;;;9.10;;
28625;SDS011;18905;42.668;23.364;2023-03-30T06:28:33;15.43;;;8.95;;
28625;SDS011;18905;42.668;23.364;2023-03-30T06:30:59;22.95;;;9.38;;
28625;SDS011;18905;42.668;23.364;2023-03-30T06:33:49;22.85;;;9.02;;
28625;SDS011;18905;42.668;23.364;2023-03-30T06:36:17;24.67;;;8.85;;
28625;SDS011;18905;42.668;23.364;2023-03-30T06:38:48;14.93;;;8.35;;
28625;SDS011;18905;42.668;23.364;2023-03-30T06:41:17;19.75;;;9.02;;
28625;SDS011;18905;42.668;23.364;2023-03-30T06:43:42;21.95;;;9.15;;
28625;SDS011;18905;42.668;23.364;2023-03-30T06:46:13;20.95;;;9.07;;
28625;SDS011;18905;42.668;23.364;2023-03-30T06:48:43;19.35;;;9.20;;
28625;SDS011;18905;42.668;23.364;2023-03-30T06:51:10;27.42;;;10.73;;
28625;SDS011;18905;42.668;23.364;2023-03-30T06:53:40;22.90;;;9.60;;
28625;SDS011;18905;42.668;23.364;2023-03-30T06:56:12;19.88;;;8.57;;
28625;SDS011;18905;42.668;23.364;2023-03-30T06:58:42;35.60;;;17.30;;
28625;SDS011;18905;42.668;23.364;2023-03-30T07:01:52;15.18;;;8.43;;
28625;SDS011;18905;42.668;23.364;2023-03-30T07:04:47;14.68;;;7.72;;
28625;SDS011;18905;42.668;23.364;2023-03-30T07:07:44;19.17;;;7.75;;
28625;SDS011;18905;42.668;23.364;2023-03-30T07:10:17;9.27;;;5.38;;
28625;SDS011;18905;42.668;23.364;2023-03-30T07:13:08;16.85;;;8.15;;
28625;SDS011;18905;42.668;23.364;2023-03-30T07:15:45;18.90;;;8.13;;
28625;SDS011;18905;42.668;23.364;2023-03-30T07:18:21;27.77;;;8.15;;
28625;SDS011;18905;42.668;23.364;2023-03-30T07:21:04;13.75;;;7.25;;
28625;SDS011;18905;42.668;23.364;2023-03-30T07:23:39;15.52;;;7.47;;
28625;SDS011;18905;42.668;23.364;2023-03-30T07:26:48;15.30;;;6.90;;
28625;SDS011;18905;42.668;23.364;2023-03-30T07:30:05;20.23;;;7.82;;
28625;SDS011;18905;42.668;23.364;2023-03-30T07:33:12;15.45;;;7.38;;
28625;SDS011;18905;42.668;23.364;2023-03-30T07:36:18;15.82;;;7.32;;
28625;SDS011;18905;42.668;23.364;2023-03-30T07:40:00;18.45;;;8.43;;
28625;SDS011;18905;42.668;23.364;2023-03-30T07:43:09;23.17;;;7.55;;
28625;SDS011;18905;42.668;23.364;2023-03-30T07:51:14;17.20;;;7.63;;
28625;SDS011;18905;42.668;23.364;2023-03-30T07:53:52;14.98;;;7.35;;
28625;SDS011;18905;42.668;23.364;2023-03-30T07:56:27;16.77;;;8.10;;
28625;SDS011;18905;42.668;23.364;2023-03-30T08:02:37;17.83;;;7.68;;
28625;SDS011;18905;42.668;23.364;2023-03-30T08:05:29;15.00;;;6.95;;
28625;SDS011;18905;42.668;23.364;2023-03-30T08:08:40;26.52;;;7.47;;
28625;SDS011;18905;42.668;23.364;2023-03-30T08:11:36;17.75;;;7.78;;
28625;SDS011;18905;42.668;23.364;2023-03-30T08:14:09;16.63;;;7.80;;
28625;SDS011;18905;42.668;23.364;2023-03-30T08:16:47;16.52;;;7.68;;
28625;SDS011;18905;42.668;23.364;2023-03-30T08:19:31;16.85;;;7.22;;
28625;SDS011;18905;42.668;23.364;2023-03-30T08:22:39;16.42;;;7.13;;
28625;SDS011;18905;42.668;23.364;2023-03-30T08:25:10;21.20;;;8.93;;
28625;SDS011;18905;42.668;23.364;2023-03-30T08:27:48;14.10;;;7.65;;
28625;SDS011;18905;42.668;23.364;2023-03-30T08:30:28;19.52;;;8.02;;
28625;SDS011;18905;42.668;23.364;2023-03-30T08:33:21;17.77;;;7.72;;
28625;SDS011;18905;42.668;23.364;2023-03-30T08:36:39;22.38;;;7.97;;
28625;SDS011;18905;42.668;23.364;2023-03-30T08:39:54;19.27;;;7.55;;
28625;SDS011;18905;42.668;23.364;2023-03-30T08:43:02;20.15;;;7.10;;
28625;SDS011;18905;42.668;23.364;2023-03-30T08:46:04;13.65;;;6.10;;
28625;SDS011;18905;42.668;23.364;2023-03-30T08:49:02;16.27;;;6.65;;
28625;SDS011;18905;42.668;23.364;2023-03-30T08:51:58;16.00;;;6.22;;
28625;SDS011;18905;42.668;23.364;2023-03-30T08:54:58;13.45;;;5.72;;
28625;SDS011;18905;42.668;23.364;2023-03-30T09:04:07;9.38;;;4.25;;
28625;SDS011;18905;42.668;23.364;2023-03-30T09:07:17;7.28;;;4.40;;
28625;SDS011;18905;42.668;23.364;2023-03-30T09:10:22;11.95;;;5.25;;
28625;SDS011;18905;42.668;23.364;2023-03-30T09:13:16;8.77;;;5.15;;
28625;SDS011;18905;42.668;23.364;2023-03-30T09:19:13;17.33;;;4.97;;
28625;SDS011;18905;42.668;23.364;2023-03-30T09:21:54;7.40;;;4.97;;
28625;SDS011;18905;42.668;23.364;2023-03-30T09:24:38;13.82;;;5.25;;
28625;SDS011;18905;42.668;23.364;2023-03-30T09:30:55;8.88;;;5.32;;
28625;SDS011;18905;42.668;23.364;2023-03-30T09:33:45;13.63;;;4.93;;
28625;SDS011;18905;42.668;23.364;2023-03-30T09:37:07;12.80;;;5.40;;
28625;SDS011;18905;42.668;23.364;2023-03-30T09:39:48;14.43;;;6.10;;
28625;SDS011;18905;42.668;23.364;2023-03-30T09:45:36;8.63;;;3.88;;
28625;SDS011;18905;42.668;23.364;2023-03-30T09:48:04;16.48;;;5.15;;
28625;SDS011;18905;42.668;23.364;2023-03-30T09:50:38;14.70;;;4.45;;
28625;SDS011;18905;42.668;23.364;2023-03-30T09:56:16;4.63;;;2.10;;
28625;SDS011;18905;42.668;23.364;2023-03-30T09:59:30;4.18;;;1.85;;
28625;SDS011;18905;42.668;23.364;2023-03-30T10:02:53;7.35;;;2.00;;
28625;SDS011;18905;42.668;23.364;2023-03-30T10:09:07;6.28;;;2.35;;
28625;SDS011;18905;42.668;23.364;2023-03-30T10:14:36;3.50;;;2.40;;
28625;SDS011;18905;42.668;23.364;2023-03-30T10:17:18;6.15;;;2.35;;
28625;SDS011;18905;42.668;23.364;2023-03-30T10:23:23;7.32;;;2.10;;
28625;SDS011;18905;42.668;23.364;2023-03-30T10:26:52;3.78;;;2.28;;
28625;SDS011;18905;42.668;23.364;2023-03-30T10:29:48;6.82;;;2.30;;
28625;SDS011;18905;42.668;23.364;2023-03-30T10:32:28;3.90;;;2.05;;
28625;SDS011;18905;42.668;23.364;2023-03-30T10:35:40;5.60;;;2.03;;
28625;SDS011;18905;42.668;23.364;2023-03-30T10:38:22;9.48;;;2.30;;
28625;SDS011;18905;42.668;23.364;2023-03-30T10:41:07;4.65;;;2.13;;
28625;SDS011;18905;42.668;23.364;2023-03-30T10:43:48;4.05;;;2.33;;
28625;SDS011;18905;42.668;23.364;2023-03-30T10:46:21;7.57;;;2.22;;
28625;SDS011;18905;42.668;23.364;2023-03-30T10:49:21;8.10;;;2.70;;
28625;SDS011;18905;42.668;23.364;2023-03-30T10:52:54;12.98;;;2.85;;
28625;SDS011;18905;42.668;23.364;2023-03-30T10:55:55;6.13;;;2.28;;
28625;SDS011;18905;42.668;23.364;2023-03-30T10:58:38;3.08;;;2.20;;
28625;SDS011;18905;42.668;23.364;2023-03-30T11:08:03;6.28;;;2.42;;
28625;SDS011;18905;42.668;23.364;2023-03-30T11:13:38;9.63;;;3.65;;
28625;SDS011;18905;42.668;23.364;2023-03-30T11:19:46;3.13;;;2.33;;
28625;SDS011;18905;42.668;23.364;2023-03-30T11:25:05;8.70;;;2.72;;
28625;SDS011;18905;42.668;23.364;2023-03-30T11:27:53;6.40;;;2.42;;
28625;SDS011;18905;42.668;23.364;2023-03-30T11:30:27;16.63;;;2.50;;
28625;SDS011;18905;42.668;23.364;2023-03-30T11:39:05;4.93;;;2.10;;
28625;SDS011;18905;42.668;23.364;2023-03-30T11:41:51;5.53;;;2.30;;
28625;SDS011;18905;42.668;23.364;2023-03-30T11:44:36;4.28;;;2.40;;
28625;SDS011;18905;42.668;23.364;2023-03-30T11:53:46;9.07;;;2.00;;
28625;SDS011;18905;42.668;23.364;2023-03-30T11:56:43;6.38;;;1.90;;
28625;SDS011;18905;42.668;23.364;2023-03-30T12:04:59;3.22;;;1.88;;
28625;SDS011;18905;42.668;23.364;2023-03-30T12:10:50;9.18;;;2.63;;
28625;SDS011;18905;42.668;23.364;2023-03-30T12:13:39;3.17;;;1.95;;
28625;SDS011;18905;42.668;23.364;2023-03-30T12:16:16;5.47;;;2.08;;
28625;SDS011;18905;42.668;23.364;2023-03-30T12:21:49;5.65;;;2.15;;
28625;SDS011;18905;42.668;23.364;2023-03-30T12:27:26;7.43;;;2.22;;
28625;SDS011;18905;42.668;23.364;2023-03-30T12:29:53;5.10;;;2.28;;
28625;SDS011;18905;42.668;23.364;2023-03-30T12:32:35;8.23;;;2.08;;
28625;SDS011;18905;42.668;23.364;2023-03-30T12:35:00;8.25;;;2.30;;
28625;SDS011;18905;42.668;23.364;2023-03-30T12:37:54;5.47;;;2.38;;
28625;SDS011;18905;42.668;23.364;2023-03-30T12:40:24;4.00;;;2.17;;
28625;SDS011;18905;42.668;23.364;2023-03-30T12:45:52;5.57;;;2.05;;
28625;SDS011;18905;42.668;23.364;2023-03-30T12:48:33;4.80;;;2.10;;
28625;SDS011;18905;42.668;23.364;2023-03-30T13:05:33;4.25;;;2.13;;
28625;SDS011;18905;42.668;23.364;2023-03-30T13:08:08;7.72;;;2.30;;
28625;SDS011;18905;42.668;23.364;2023-03-30T13:10:48;7.45;;;2.10;;
28625;SDS011;18905;42.668;23.364;2023-03-30T13:13:22;7.60;;;2.08;;
28625;SDS011;18905;42.668;23.364;2023-03-30T13:16:08;7.53;;;2.40;;
28625;SDS011;18905;42.668;23.364;2023-03-30T13:19:13;3.38;;;2.13;;
28625;SDS011;18905;42.668;23.364;2023-03-30T13:21:48;2.67;;;1.55;;
28625;SDS011;18905;42.668;23.364;2023-03-30T13:24:25;5.63;;;1.83;;
28625;SDS011;18905;42.668;23.364;2023-03-30T13:52:09;3.00;;;1.67;;
28625;SDS011;18905;42.668;23.364;2023-03-30T13:54:42;6.13;;;1.83;;
28625;SDS011;18905;42.668;23.364;2023-03-30T13:57:10;5.07;;;1.90;;
28625;SDS011;18905;42.668;23.364;2023-03-30T13:59:37;5.95;;;2.22;;
28625;SDS011;18905;42.668;23.364;2023-03-30T14:02:11;4.90;;;1.73;;
28625;SDS011;18905;42.668;23.364;2023-03-30T14:04:40;6.10;;;2.58;;
28625;SDS011;18905;42.668;23.364;2023-03-30T14:07:16;5.88;;;2.33;;
28625;SDS011;18905;42.668;23.364;2023-03-30T14:10:05;5.20;;;1.92;;
28625;SDS011;18905;42.668;23.364;2023-03-30T14:12:35;6.32;;;1.40;;
28625;SDS011;18905;42.668;23.364;2023-03-30T14:15:13;8.52;;;1.73;;
28625;SDS011;18905;42.668;23.364;2023-03-30T14:17:46;3.15;;;1.63;;
28625;SDS011;18905;42.668;23.364;2023-03-30T14:26:13;4.43;;;1.80;;
28625;SDS011;18905;42.668;23.364;2023-03-30T14:28:41;3.70;;;1.45;;
28625;SDS011;18905;42.668;23.364;2023-03-30T14:31:11;6.55;;;2.08;;
28625;SDS011;18905;42.668;23.364;2023-03-30T14:33:42;2.90;;;1.60;;
28625;SDS011;18905;42.668;23.364;2023-03-30T14:36:08;5.50;;;1.77;;
28625;SDS011;18905;42.668;23.364;2023-03-30T14:38:44;7.75;;;1.98;;
28625;SDS011;18905;42.668;23.364;2023-03-30T14:41:13;16.35;;;2.30;;
28625;SDS011;18905;42.668;23.364;2023-03-30T14:46:41;8.27;;;2.25;;
28625;SDS011;18905;42.668;23.364;2023-03-30T14:49:13;8.52;;;1.63;;
28625;SDS011;18905;42.668;23.364;2023-03-30T14:51:52;3.67;;;1.80;;
28625;SDS011;18905;42.668;23.364;2023-03-30T14:54:25;4.47;;;1.55;;
28625;SDS011;18905;42.668;23.364;2023-03-30T14:57:01;2.70;;;1.60;;
28625;SDS011;18905;42.668;23.364;2023-03-30T14:59:29;4.72;;;1.92;;
28625;SDS011;18905;42.668;23.364;2023-03-30T15:01:58;6.90;;;2.15;;
28625;SDS011;18905;42.668;23.364;2023-03-30T15:04:33;7.15;;;2.20;;
28625;SDS011;18905;42.668;23.364;2023-03-30T15:07:01;2.90;;;1.88;;
28625;SDS011;18905;42.668;23.364;2023-03-30T15:09:28;3.50;;;1.70;;
28625;SDS011;18905;42.668;23.364;2023-03-30T15:12:03;6.30;;;2.13;;
28625;SDS011;18905;42.668;23.364;2023-03-30T15:14:36;4.07;;;1.73;;
28625;SDS011;18905;42.668;23.364;2023-03-30T15:17:08;4.22;;;1.90;;
28625;SDS011;18905;42.668;23.364;2023-03-30T15:19:38;3.47;;;1.90;;
28625;SDS011;18905;42.668;23.364;2023-03-30T15:22:11;4.85;;;2.00;;
28625;SDS011;18905;42.668;23.364;2023-03-30T15:24:45;5.88;;;1.80;;
28625;SDS011;18905;42.668;23.364;2023-03-30T15:27:12;5.15;;;1.80;;
28625;SDS011;18905;42.668;23.364;2023-03-30T15:29:40;4.72;;;1.77;;
28625;SDS011;18905;42.668;23.364;2023-03-30T15:37:28;5.32;;;1.85;;
28625;SDS011;18905;42.668;23.364;2023-03-30T15:39:56;5.53;;;1.90;;
28625;SDS011;18905;42.668;23.364;2023-03-30T15:42:28;5.35;;;2.22;;
28625;SDS011;18905;42.668;23.364;2023-03-30T15:45:32;6.13;;;2.55;;
28625;SDS011;18905;42.668;23.364;2023-03-30T15:47:46;5.97;;;2.10;;
28625;SDS011;18905;42.668;23.364;2023-03-30T15:50:12;6.85;;;2.22;;
28625;SDS011;18905;42.668;23.364;2023-03-30T15:52:42;4.60;;;2.22;;
28625;SDS011;18905;42.668;23.364;2023-03-30T15:55:20;6.78;;;2.17;;
28625;SDS011;18905;42.668;23.364;2023-03-30T15:57:50;6.60;;;2.20;;
28625;SDS011;18905;42.668;23.364;2023-03-30T16:00:20;6.90;;;2.03;;
28625;SDS011;18905;42.668;23.364;2023-03-30T16:02:57;7.18;;;2.15;;
28625;SDS011;18905;42.668;23.364;2023-03-30T16:05:32;6.22;;;1.98;;
28625;SDS011;18905;42.668;23.364;2023-03-30T16:07:58;6.03;;;2.15;;
28625;SDS011;18905;42.668;23.364;2023-03-30T16:10:28;5.65;;;2.53;;
28625;SDS011;18905;42.668;23.364;2023-03-30T16:12:57;7.45;;;2.65;;
28625;SDS011;18905;42.668;23.364;2023-03-30T16:15:28;9.00;;;2.60;;
28625;SDS011;18905;42.668;23.364;2023-03-30T16:17:58;8.05;;;2.17;;
28625;SDS011;18905;42.668;23.364;2023-03-30T16:20:30;6.65;;;2.25;;
28625;SDS011;18905;42.668;23.364;2023-03-30T16:22:57;4.30;;;2.53;;
28625;SDS011;18905;42.668;23.364;2023-03-30T16:25:24;6.15;;;2.42;;
28625;SDS011;18905;42.668;23.364;2023-03-30T16:27:52;5.55;;;2.45;;
28625;SDS011;18905;42.668;23.364;2023-03-30T16:32:44;7.70;;;2.70;;
28625;SDS011;18905;42.668;23.364;2023-03-30T16:35:11;8.95;;;2.63;;
28625;SDS011;18905;42.668;23.364;2023-03-30T16:37:37;14.18;;;3.10;;
28625;SDS011;18905;42.668;23.364;2023-03-30T16:42:54;8.63;;;3.05;;
28625;SDS011;18905;42.668;23.364;2023-03-30T16:45:19;9.60;;;3.15;;
28625;SDS011;18905;42.668;23.364;2023-03-30T16:47:45;7.45;;;3.05;;
28625;SDS011;18905;42.668;23.364;2023-03-30T16:50:16;13.13;;;3.67;;
28625;SDS011;18905;42.668;23.364;2023-03-30T16:52:48;16.77;;;3.60;;
28625;SDS011;18905;42.668;23.364;2023-03-30T16:55:15;12.82;;;3.50;;
28625;SDS011;18905;42.668;23.364;2023-03-30T16:57:41;13.27;;;3.80;;
28625;SDS011;18905;42.668;23.364;2023-03-30T17:00:16;8.38;;;3.38;;
28625;SDS011;18905;42.668;23.364;2023-03-30T17:02:43;12.50;;;3.72;;
28625;SDS011;18905;42.668;23.364;2023-03-30T17:05:09;9.50;;;4.90;;
28625;SDS011;18905;42.668;23.364;2023-03-30T17:07:35;16.50;;;5.43;;
28625;SDS011;18905;42.668;23.364;2023-03-30T17:10:08;12.68;;;4.43;;
28625;SDS011;18905;42.668;23.364;2023-03-30T17:12:36;9.75;;;4.55;;
28625;SDS011;18905;42.668;23.364;2023-03-30T17:15:02;15.20;;;4.40;;
28625;SDS011;18905;42.668;23.364;2023-03-30T17:17:29;19.52;;;6.50;;
28625;SDS011;18905;42.668;23.364;2023-03-30T17:19:54;16.50;;;6.07;;
28625;SDS011;18905;42.668;23.364;2023-03-30T17:22:20;16.33;;;6.18;;
28625;SDS011;18905;42.668;23.364;2023-03-30T17:24:46;21.42;;;6.93;;
28625;SDS011;18905;42.668;23.364;2023-03-30T17:27:17;19.27;;;5.38;;
28625;SDS011;18905;42.668;23.364;2023-03-30T17:29:44;16.00;;;6.15;;
28625;SDS011;18905;42.668;23.364;2023-03-30T17:32:10;21.60;;;6.82;;
28625;SDS011;18905;42.668;23.364;2023-03-30T17:34:36;21.02;;;7.15;;
28625;SDS011;18905;42.668;23.364;2023-03-30T17:37:01;25.23;;;6.82;;
28625;SDS011;18905;42.668;23.364;2023-03-30T17:39:27;19.80;;;6.43;;
28625;SDS011;18905;42.668;23.364;2023-03-30T17:41:52;17.95;;;6.45;;
28625;SDS011;18905;42.668;23.364;2023-03-30T17:44:18;17.00;;;6.43;;
28625;SDS011;18905;42.668;23.364;2023-03-30T17:46:43;16.83;;;6.72;;
28625;SDS011;18905;42.668;23.364;2023-03-30T17:49:11;24.75;;;11.73;;
28625;SDS011;18905;42.668;23.364;2023-03-30T17:51:40;26.67;;;9.30;;
28625;SDS011;18905;42.668;23.364;2023-03-30T17:54:05;33.03;;;10.30;;
28625;SDS011;18905;42.668;23.364;2023-03-30T17:56:32;22.63;;;8.82;;
28625;SDS011;18905;42.668;23.364;2023-03-30T17:58:57;25.85;;;9.27;;
28625;SDS011;18905;42.668;23.364;2023-03-30T18:01:23;27.65;;;10.25;;
28625;SDS011;18905;42.668;23.364;2023-03-30T18:03:49;25.92;;;8.73;;
28625;SDS011;18905;42.668;23.364;2023-03-30T18:06:15;24.27;;;8.70;;
28625;SDS011;18905;42.668;23.364;2023-03-30T18:08:41;24.80;;;8.95;;
28625;SDS011;18905;42.668;23.364;2023-03-30T18:11:07;23.75;;;9.60;;
28625;SDS011;18905;42.668;23.364;2023-03-30T18:13:33;32.05;;;9.13;;